Terminal Aerodrome Forecast
Issued by NWS

Home | Current Version | Previous Version | Text Only | Print | Product List | Glossary On
Versions: 1 2 3 4 5 6 7 8 9 10 11 12 13
850
FTUS44 KTSA 270520
TAFRVS
TAF
KRVS 270520Z 2706/2806 03004KT P6SM SCT050 BKN100
     FM271200 10004KT P6SM BKN025
     FM271500 14007KT 4SM BR OVC015
     FM271800 16010G16KT P6SM OVC025
     FM280100 17008KT 4SM BR BKN020=

USA.gov is the U.S. government's official web portal to all federal, state and local government web resources and services.